sensor_id;sensor_type;location;lat;lon;timestamp;P1;durP1;ratioP1;P2;durP2;ratioP2
16282;SDS011;8249;48.708;9.030;2022-08-27T00:02:04;24.13;;;21.27;;
16282;SDS011;8249;48.708;9.030;2022-08-27T00:04:30;27.90;;;22.97;;
16282;SDS011;8249;48.708;9.030;2022-08-27T00:06:58;23.73;;;21.27;;
16282;SDS011;8249;48.708;9.030;2022-08-27T00:09:26;26.23;;;23.47;;
16282;SDS011;8249;48.708;9.030;2022-08-27T00:11:55;24.30;;;20.37;;
16282;SDS011;8249;48.708;9.030;2022-08-27T00:14:22;24.27;;;19.93;;
16282;SDS011;8249;48.708;9.030;2022-08-27T00:16:50;22.70;;;20.40;;
16282;SDS011;8249;48.708;9.030;2022-08-27T00:19:17;24.80;;;21.50;;
16282;SDS011;8249;48.708;9.030;2022-08-27T00:21:44;24.43;;;21.87;;
16282;SDS011;8249;48.708;9.030;2022-08-27T00:24:11;28.27;;;24.07;;
16282;SDS011;8249;48.708;9.030;2022-08-27T00:26:38;27.17;;;23.40;;
16282;SDS011;8249;48.708;9.030;2022-08-27T00:29:07;29.00;;;23.03;;
16282;SDS011;8249;48.708;9.030;2022-08-27T00:31:34;24.93;;;21.70;;
16282;SDS011;8249;48.708;9.030;2022-08-27T00:34:01;26.23;;;22.30;;
16282;SDS011;8249;48.708;9.030;2022-08-27T00:36:29;23.77;;;21.37;;
16282;SDS011;8249;48.708;9.030;2022-08-27T00:38:56;25.10;;;22.40;;
16282;SDS011;8249;48.708;9.030;2022-08-27T00:41:23;24.80;;;21.97;;
16282;SDS011;8249;48.708;9.030;2022-08-27T00:43:51;27.00;;;21.00;;
16282;SDS011;8249;48.708;9.030;2022-08-27T00:46:24;25.70;;;22.97;;
16282;SDS011;8249;48.708;9.030;2022-08-27T00:48:54;27.03;;;24.13;;
16282;SDS011;8249;48.708;9.030;2022-08-27T00:51:25;29.20;;;26.07;;
16282;SDS011;8249;48.708;9.030;2022-08-27T00:53:53;30.53;;;26.87;;
16282;SDS011;8249;48.708;9.030;2022-08-27T00:56:23;30.40;;;26.83;;
16282;SDS011;8249;48.708;9.030;2022-08-27T00:58:53;32.53;;;26.67;;
16282;SDS011;8249;48.708;9.030;2022-08-27T01:01:24;28.87;;;25.57;;
16282;SDS011;8249;48.708;9.030;2022-08-27T01:03:56;30.30;;;26.23;;
16282;SDS011;8249;48.708;9.030;2022-08-27T01:06:27;28.53;;;25.00;;
16282;SDS011;8249;48.708;9.030;2022-08-27T01:09:01;25.53;;;22.70;;
16282;SDS011;8249;48.708;9.030;2022-08-27T01:11:30;27.33;;;23.83;;
16282;SDS011;8249;48.708;9.030;2022-08-27T01:13:58;26.87;;;23.73;;
16282;SDS011;8249;48.708;9.030;2022-08-27T01:16:28;28.03;;;22.77;;
16282;SDS011;8249;48.708;9.030;2022-08-27T01:19:00;27.03;;;24.13;;
16282;SDS011;8249;48.708;9.030;2022-08-27T01:21:29;27.43;;;24.33;;
16282;SDS011;8249;48.708;9.030;2022-08-27T01:24:02;26.87;;;23.97;;
16282;SDS011;8249;48.708;9.030;2022-08-27T01:26:35;27.07;;;23.67;;
16282;SDS011;8249;48.708;9.030;2022-08-27T01:29:02;171.83;;;28.43;;
16282;SDS011;8249;48.708;9.030;2022-08-27T01:31:29;30.63;;;23.83;;
16282;SDS011;8249;48.708;9.030;2022-08-27T01:33:57;28.27;;;24.20;;
16282;SDS011;8249;48.708;9.030;2022-08-27T01:36:25;28.07;;;23.00;;
16282;SDS011;8249;48.708;9.030;2022-08-27T01:38:52;26.70;;;23.60;;
16282;SDS011;8249;48.708;9.030;2022-08-27T01:41:20;26.20;;;23.37;;
16282;SDS011;8249;48.708;9.030;2022-08-27T01:43:49;23.97;;;21.53;;
16282;SDS011;8249;48.708;9.030;2022-08-27T01:46:19;25.03;;;22.30;;
16282;SDS011;8249;48.708;9.030;2022-08-27T01:48:47;25.13;;;22.10;;
16282;SDS011;8249;48.708;9.030;2022-08-27T01:51:14;23.37;;;20.97;;
16282;SDS011;8249;48.708;9.030;2022-08-27T01:53:41;24.83;;;22.27;;
16282;SDS011;8249;48.708;9.030;2022-08-27T01:56:08;24.10;;;21.73;;
16282;SDS011;8249;48.708;9.030;2022-08-27T01:58:36;24.73;;;22.27;;
16282;SDS011;8249;48.708;9.030;2022-08-27T02:01:07;23.93;;;21.43;;
16282;SDS011;8249;48.708;9.030;2022-08-27T02:03:37;31.80;;;23.47;;
16282;SDS011;8249;48.708;9.030;2022-08-27T02:06:06;33.50;;;24.83;;
16282;SDS011;8249;48.708;9.030;2022-08-27T02:08:34;28.43;;;25.33;;
16282;SDS011;8249;48.708;9.030;2022-08-27T02:11:02;31.67;;;26.70;;
16282;SDS011;8249;48.708;9.030;2022-08-27T02:13:30;28.20;;;25.30;;
16282;SDS011;8249;48.708;9.030;2022-08-27T02:15:57;31.50;;;26.53;;
16282;SDS011;8249;48.708;9.030;2022-08-27T02:18:25;33.33;;;26.73;;
16282;SDS011;8249;48.708;9.030;2022-08-27T02:20:52;35.30;;;28.47;;
16282;SDS011;8249;48.708;9.030;2022-08-27T02:23:19;36.33;;;28.67;;
16282;SDS011;8249;48.708;9.030;2022-08-27T02:25:46;31.50;;;28.03;;
16282;SDS011;8249;48.708;9.030;2022-08-27T02:28:13;28.83;;;25.73;;
16282;SDS011;8249;48.708;9.030;2022-08-27T02:30:40;28.40;;;25.37;;
16282;SDS011;8249;48.708;9.030;2022-08-27T02:33:08;27.53;;;24.40;;
16282;SDS011;8249;48.708;9.030;2022-08-27T02:35:36;26.20;;;22.93;;
16282;SDS011;8249;48.708;9.030;2022-08-27T02:38:05;28.70;;;22.33;;
16282;SDS011;8249;48.708;9.030;2022-08-27T02:40:32;24.53;;;22.00;;
16282;SDS011;8249;48.708;9.030;2022-08-27T02:42:59;28.00;;;23.93;;
16282;SDS011;8249;48.708;9.030;2022-08-27T02:45:25;30.40;;;24.97;;
16282;SDS011;8249;48.708;9.030;2022-08-27T02:47:53;29.47;;;25.27;;
16282;SDS011;8249;48.708;9.030;2022-08-27T02:50:20;28.50;;;25.50;;
16282;SDS011;8249;48.708;9.030;2022-08-27T02:52:48;29.90;;;25.20;;
16282;SDS011;8249;48.708;9.030;2022-08-27T02:55:15;28.40;;;24.47;;
16282;SDS011;8249;48.708;9.030;2022-08-27T02:57:42;27.13;;;24.23;;
16282;SDS011;8249;48.708;9.030;2022-08-27T03:00:11;33.97;;;26.93;;
16282;SDS011;8249;48.708;9.030;2022-08-27T03:02:40;28.33;;;24.40;;
16282;SDS011;8249;48.708;9.030;2022-08-27T03:05:07;28.40;;;25.40;;
16282;SDS011;8249;48.708;9.030;2022-08-27T03:07:36;27.33;;;24.27;;
16282;SDS011;8249;48.708;9.030;2022-08-27T03:10:06;27.30;;;24.00;;
16282;SDS011;8249;48.708;9.030;2022-08-27T03:12:35;27.13;;;24.20;;
16282;SDS011;8249;48.708;9.030;2022-08-27T03:15:02;28.57;;;23.43;;
16282;SDS011;8249;48.708;9.030;2022-08-27T03:17:30;25.50;;;21.90;;
16282;SDS011;8249;48.708;9.030;2022-08-27T03:20:14;24.77;;;21.37;;
16282;SDS011;8249;48.708;9.030;2022-08-27T03:22:42;23.33;;;19.77;;
16282;SDS011;8249;48.708;9.030;2022-08-27T03:25:11;22.33;;;20.07;;
16282;SDS011;8249;48.708;9.030;2022-08-27T03:27:39;22.50;;;17.53;;
16282;SDS011;8249;48.708;9.030;2022-08-27T03:30:07;20.07;;;17.97;;
16282;SDS011;8249;48.708;9.030;2022-08-27T03:32:37;25.27;;;22.63;;
16282;SDS011;8249;48.708;9.030;2022-08-27T03:35:05;27.33;;;24.43;;
16282;SDS011;8249;48.708;9.030;2022-08-27T03:37:32;30.87;;;27.53;;
16282;SDS011;8249;48.708;9.030;2022-08-27T03:39:59;33.30;;;29.73;;
16282;SDS011;8249;48.708;9.030;2022-08-27T03:42:27;34.90;;;31.23;;
16282;SDS011;8249;48.708;9.030;2022-08-27T03:44:54;35.77;;;31.87;;
16282;SDS011;8249;48.708;9.030;2022-08-27T03:47:21;37.77;;;32.60;;
16282;SDS011;8249;48.708;9.030;2022-08-27T03:49:48;39.50;;;34.73;;
16282;SDS011;8249;48.708;9.030;2022-08-27T03:52:15;40.77;;;36.47;;
16282;SDS011;8249;48.708;9.030;2022-08-27T03:54:43;45.73;;;38.77;;
16282;SDS011;8249;48.708;9.030;2022-08-27T03:57:10;45.70;;;40.40;;
16282;SDS011;8249;48.708;9.030;2022-08-27T03:59:39;55.80;;;48.23;;
16282;SDS011;8249;48.708;9.030;2022-08-27T04:02:06;57.40;;;50.03;;
16282;SDS011;8249;48.708;9.030;2022-08-27T04:04:33;58.33;;;51.80;;
16282;SDS011;8249;48.708;9.030;2022-08-27T04:07:00;60.60;;;52.70;;
16282;SDS011;8249;48.708;9.030;2022-08-27T04:09:27;63.07;;;54.40;;
16282;SDS011;8249;48.708;9.030;2022-08-27T04:11:54;60.37;;;53.60;;
16282;SDS011;8249;48.708;9.030;2022-08-27T04:14:21;62.50;;;54.43;;
16282;SDS011;8249;48.708;9.030;2022-08-27T04:16:50;63.60;;;53.57;;
16282;SDS011;8249;48.708;9.030;2022-08-27T04:19:18;58.67;;;52.23;;
16282;SDS011;8249;48.708;9.030;2022-08-27T04:21:46;62.63;;;51.53;;
16282;SDS011;8249;48.708;9.030;2022-08-27T04:24:13;59.27;;;51.60;;
16282;SDS011;8249;48.708;9.030;2022-08-27T04:26:40;59.10;;;51.00;;
16282;SDS011;8249;48.708;9.030;2022-08-27T04:29:09;54.67;;;48.50;;
16282;SDS011;8249;48.708;9.030;2022-08-27T04:31:37;54.73;;;46.40;;
16282;SDS011;8249;48.708;9.030;2022-08-27T04:34:05;51.83;;;45.03;;
16282;SDS011;8249;48.708;9.030;2022-08-27T04:36:32;54.00;;;45.30;;
16282;SDS011;8249;48.708;9.030;2022-08-27T04:38:59;52.70;;;45.23;;
16282;SDS011;8249;48.708;9.030;2022-08-27T04:41:27;51.27;;;44.70;;
16282;SDS011;8249;48.708;9.030;2022-08-27T04:43:57;53.30;;;43.73;;
16282;SDS011;8249;48.708;9.030;2022-08-27T04:46:30;50.90;;;43.30;;
16282;SDS011;8249;48.708;9.030;2022-08-27T04:49:00;51.93;;;43.83;;
16282;SDS011;8249;48.708;9.030;2022-08-27T04:51:30;53.50;;;46.00;;
16282;SDS011;8249;48.708;9.030;2022-08-27T04:53:58;59.50;;;49.13;;
16282;SDS011;8249;48.708;9.030;2022-08-27T04:56:26;62.63;;;47.57;;
16282;SDS011;8249;48.708;9.030;2022-08-27T04:58:54;63.93;;;47.87;;
16282;SDS011;8249;48.708;9.030;2022-08-27T05:01:22;60.27;;;46.33;;
16282;SDS011;8249;48.708;9.030;2022-08-27T05:03:50;58.67;;;47.40;;
16282;SDS011;8249;48.708;9.030;2022-08-27T05:06:18;65.53;;;47.77;;
16282;SDS011;8249;48.708;9.030;2022-08-27T05:08:48;64.50;;;48.90;;
16282;SDS011;8249;48.708;9.030;2022-08-27T05:11:17;63.83;;;48.53;;
16282;SDS011;8249;48.708;9.030;2022-08-27T05:13:45;61.57;;;46.67;;
16282;SDS011;8249;48.708;9.030;2022-08-27T05:16:14;58.40;;;47.17;;
16282;SDS011;8249;48.708;9.030;2022-08-27T05:18:43;60.63;;;46.70;;
16282;SDS011;8249;48.708;9.030;2022-08-27T05:21:15;63.30;;;47.10;;
16282;SDS011;8249;48.708;9.030;2022-08-27T05:23:43;60.07;;;46.27;;
16282;SDS011;8249;48.708;9.030;2022-08-27T05:26:11;55.47;;;46.67;;
16282;SDS011;8249;48.708;9.030;2022-08-27T05:28:38;61.90;;;46.47;;
16282;SDS011;8249;48.708;9.030;2022-08-27T05:31:09;60.93;;;46.67;;
16282;SDS011;8249;48.708;9.030;2022-08-27T05:33:37;54.13;;;44.07;;
16282;SDS011;8249;48.708;9.030;2022-08-27T05:36:05;57.53;;;46.87;;
16282;SDS011;8249;48.708;9.030;2022-08-27T05:38:33;58.30;;;45.07;;
16282;SDS011;8249;48.708;9.030;2022-08-27T05:41:01;59.70;;;45.87;;
16282;SDS011;8249;48.708;9.030;2022-08-27T05:43:31;56.07;;;44.53;;
16282;SDS011;8249;48.708;9.030;2022-08-27T05:46:01;56.37;;;44.17;;
16282;SDS011;8249;48.708;9.030;2022-08-27T05:48:29;51.37;;;43.37;;
16282;SDS011;8249;48.708;9.030;2022-08-27T05:50:56;55.33;;;45.00;;
16282;SDS011;8249;48.708;9.030;2022-08-27T05:53:23;56.20;;;45.80;;
16282;SDS011;8249;48.708;9.030;2022-08-27T05:55:50;54.00;;;44.43;;
16282;SDS011;8249;48.708;9.030;2022-08-27T05:58:17;54.50;;;44.80;;
16282;SDS011;8249;48.708;9.030;2022-08-27T06:01:03;56.27;;;46.50;;
16282;SDS011;8249;48.708;9.030;2022-08-27T06:03:30;54.67;;;44.80;;
16282;SDS011;8249;48.708;9.030;2022-08-27T06:06:01;53.33;;;44.13;;
16282;SDS011;8249;48.708;9.030;2022-08-27T06:08:28;50.47;;;42.53;;
16282;SDS011;8249;48.708;9.030;2022-08-27T06:10:55;53.27;;;42.20;;
16282;SDS011;8249;48.708;9.030;2022-08-27T06:13:22;56.23;;;44.03;;
16282;SDS011;8249;48.708;9.030;2022-08-27T06:15:49;51.27;;;43.93;;
16282;SDS011;8249;48.708;9.030;2022-08-27T06:18:17;53.78;;;44.45;;
16282;SDS011;8249;48.708;9.030;2022-08-27T06:20:44;52.30;;;43.50;;
16282;SDS011;8249;48.708;9.030;2022-08-27T06:23:11;46.20;;;40.83;;
16282;SDS011;8249;48.708;9.030;2022-08-27T06:25:39;46.13;;;41.17;;
16282;SDS011;8249;48.708;9.030;2022-08-27T06:28:06;47.23;;;42.13;;
16282;SDS011;8249;48.708;9.030;2022-08-27T06:30:33;47.15;;;40.38;;
16282;SDS011;8249;48.708;9.030;2022-08-27T06:33:01;47.37;;;40.37;;
16282;SDS011;8249;48.708;9.030;2022-08-27T06:35:29;48.30;;;39.10;;
16282;SDS011;8249;48.708;9.030;2022-08-27T06:37:56;44.67;;;39.87;;
16282;SDS011;8249;48.708;9.030;2022-08-27T06:40:23;48.80;;;41.80;;
16282;SDS011;8249;48.708;9.030;2022-08-27T06:42:50;45.13;;;40.13;;
16282;SDS011;8249;48.708;9.030;2022-08-27T06:45:17;46.58;;;38.90;;
16282;SDS011;8249;48.708;9.030;2022-08-27T06:47:44;45.95;;;39.60;;
16282;SDS011;8249;48.708;9.030;2022-08-27T06:50:11;46.15;;;39.58;;
16282;SDS011;8249;48.708;9.030;2022-08-27T06:52:39;42.88;;;37.90;;
16282;SDS011;8249;48.708;9.030;2022-08-27T06:55:06;44.03;;;37.83;;
16282;SDS011;8249;48.708;9.030;2022-08-27T06:57:35;40.30;;;36.00;;
16282;SDS011;8249;48.708;9.030;2022-08-27T07:00:03;44.72;;;37.38;;
16282;SDS011;8249;48.708;9.030;2022-08-27T07:02:31;43.35;;;37.65;;
16282;SDS011;8249;48.708;9.030;2022-08-27T07:04:58;40.65;;;36.25;;
16282;SDS011;8249;48.708;9.030;2022-08-27T07:07:25;39.38;;;35.28;;
16282;SDS011;8249;48.708;9.030;2022-08-27T07:09:53;40.15;;;33.63;;
16282;SDS011;8249;48.708;9.030;2022-08-27T07:12:21;40.17;;;35.20;;
16282;SDS011;8249;48.708;9.030;2022-08-27T07:14:47;37.83;;;33.77;;
16282;SDS011;8249;48.708;9.030;2022-08-27T07:17:14;36.60;;;32.78;;
16282;SDS011;8249;48.708;9.030;2022-08-27T07:19:41;36.92;;;33.00;;
16282;SDS011;8249;48.708;9.030;2022-08-27T07:22:09;36.30;;;32.35;;
16282;SDS011;8249;48.708;9.030;2022-08-27T07:24:37;35.55;;;32.00;;
16282;SDS011;8249;48.708;9.030;2022-08-27T07:27:06;35.78;;;32.15;;
16282;SDS011;8249;48.708;9.030;2022-08-27T07:29:33;35.45;;;31.13;;
16282;SDS011;8249;48.708;9.030;2022-08-27T07:32:00;36.10;;;32.20;;
16282;SDS011;8249;48.708;9.030;2022-08-27T07:34:27;34.72;;;31.15;;
16282;SDS011;8249;48.708;9.030;2022-08-27T07:36:54;35.70;;;31.67;;
16282;SDS011;8249;48.708;9.030;2022-08-27T07:39:21;33.08;;;29.52;;
16282;SDS011;8249;48.708;9.030;2022-08-27T07:41:48;34.53;;;30.92;;
16282;SDS011;8249;48.708;9.030;2022-08-27T07:44:33;35.28;;;30.65;;
16282;SDS011;8249;48.708;9.030;2022-08-27T07:47:01;34.78;;;30.23;;
16282;SDS011;8249;48.708;9.030;2022-08-27T07:49:28;34.50;;;30.02;;
16282;SDS011;8249;48.708;9.030;2022-08-27T07:51:59;32.38;;;29.08;;
16282;SDS011;8249;48.708;9.030;2022-08-27T07:54:25;32.17;;;28.70;;
16282;SDS011;8249;48.708;9.030;2022-08-27T07:56:53;36.88;;;30.50;;
16282;SDS011;8249;48.708;9.030;2022-08-27T07:59:20;32.80;;;28.50;;
16282;SDS011;8249;48.708;9.030;2022-08-27T08:01:49;34.17;;;29.88;;
16282;SDS011;8249;48.708;9.030;2022-08-27T08:04:16;33.33;;;29.80;;
16282;SDS011;8249;48.708;9.030;2022-08-27T08:06:43;36.58;;;29.42;;
16282;SDS011;8249;48.708;9.030;2022-08-27T08:09:10;36.88;;;30.60;;
16282;SDS011;8249;48.708;9.030;2022-08-27T08:11:37;32.95;;;28.38;;
16282;SDS011;8249;48.708;9.030;2022-08-27T08:14:04;32.95;;;29.48;;
16282;SDS011;8249;48.708;9.030;2022-08-27T08:16:31;33.13;;;29.38;;
16282;SDS011;8249;48.708;9.030;2022-08-27T08:18:59;34.10;;;29.95;;
16282;SDS011;8249;48.708;9.030;2022-08-27T08:21:26;35.30;;;31.52;;
16282;SDS011;8249;48.708;9.030;2022-08-27T08:23:53;32.50;;;28.98;;
16282;SDS011;8249;48.708;9.030;2022-08-27T08:26:20;37.65;;;31.80;;
16282;SDS011;8249;48.708;9.030;2022-08-27T08:28:47;33.78;;;30.08;;
16282;SDS011;8249;48.708;9.030;2022-08-27T08:31:14;33.13;;;29.60;;
16282;SDS011;8249;48.708;9.030;2022-08-27T08:33:41;33.95;;;29.85;;
16282;SDS011;8249;48.708;9.030;2022-08-27T08:36:10;36.35;;;30.45;;
16282;SDS011;8249;48.708;9.030;2022-08-27T08:38:39;33.67;;;29.75;;
16282;SDS011;8249;48.708;9.030;2022-08-27T08:41:23;34.33;;;30.80;;
16282;SDS011;8249;48.708;9.030;2022-08-27T08:43:59;36.83;;;31.40;;
16282;SDS011;8249;48.708;9.030;2022-08-27T08:46:29;38.22;;;32.72;;
16282;SDS011;8249;48.708;9.030;2022-08-27T08:49:01;38.20;;;33.75;;
16282;SDS011;8249;48.708;9.030;2022-08-27T08:51:38;42.83;;;33.65;;
16282;SDS011;8249;48.708;9.030;2022-08-27T08:54:08;41.17;;;32.88;;
16282;SDS011;8249;48.708;9.030;2022-08-27T08:56:42;35.53;;;31.38;;
16282;SDS011;8249;48.708;9.030;2022-08-27T08:59:17;40.50;;;34.05;;
16282;SDS011;8249;48.708;9.030;2022-08-27T09:01:51;43.88;;;33.22;;
16282;SDS011;8249;48.708;9.030;2022-08-27T09:04:18;44.00;;;32.75;;
16282;SDS011;8249;48.708;9.030;2022-08-27T09:06:50;35.67;;;31.88;;
16282;SDS011;8249;48.708;9.030;2022-08-27T09:09:24;38.78;;;32.63;;
16282;SDS011;8249;48.708;9.030;2022-08-27T09:11:56;38.72;;;33.72;;
16282;SDS011;8249;48.708;9.030;2022-08-27T09:14:29;41.22;;;33.75;;
16282;SDS011;8249;48.708;9.030;2022-08-27T09:17:01;38.85;;;33.75;;
16282;SDS011;8249;48.708;9.030;2022-08-27T09:19:29;36.25;;;32.22;;
16282;SDS011;8249;48.708;9.030;2022-08-27T09:22:00;45.10;;;33.75;;
16282;SDS011;8249;48.708;9.030;2022-08-27T09:24:33;43.38;;;35.10;;
16282;SDS011;8249;48.708;9.030;2022-08-27T09:27:09;44.05;;;35.58;;
16282;SDS011;8249;48.708;9.030;2022-08-27T09:29:45;44.42;;;34.95;;
16282;SDS011;8249;48.708;9.030;2022-08-27T09:32:13;43.63;;;34.08;;
16282;SDS011;8249;48.708;9.030;2022-08-27T09:34:41;43.55;;;35.28;;
16282;SDS011;8249;48.708;9.030;2022-08-27T09:37:12;37.83;;;31.93;;
16282;SDS011;8249;48.708;9.030;2022-08-27T09:39:44;44.80;;;33.40;;
16282;SDS011;8249;48.708;9.030;2022-08-27T09:42:23;40.58;;;32.65;;
16282;SDS011;8249;48.708;9.030;2022-08-27T09:44:54;37.25;;;30.38;;
16282;SDS011;8249;48.708;9.030;2022-08-27T09:47:22;40.95;;;30.08;;
16282;SDS011;8249;48.708;9.030;2022-08-27T09:49:59;34.58;;;29.35;;
16282;SDS011;8249;48.708;9.030;2022-08-27T09:52:33;33.47;;;29.85;;
16282;SDS011;8249;48.708;9.030;2022-08-27T09:55:03;32.63;;;28.85;;
16282;SDS011;8249;48.708;9.030;2022-08-27T09:57:32;30.70;;;27.40;;
16282;SDS011;8249;48.708;9.030;2022-08-27T10:00:01;32.33;;;28.75;;
16282;SDS011;8249;48.708;9.030;2022-08-27T10:02:47;34.00;;;28.40;;
16282;SDS011;8249;48.708;9.030;2022-08-27T10:05:16;32.58;;;27.33;;
16282;SDS011;8249;48.708;9.030;2022-08-27T10:07:51;32.03;;;28.38;;
16282;SDS011;8249;48.708;9.030;2022-08-27T10:10:25;30.35;;;26.73;;
16282;SDS011;8249;48.708;9.030;2022-08-27T10:13:13;30.08;;;26.80;;
16282;SDS011;8249;48.708;9.030;2022-08-27T10:15:44;31.70;;;28.23;;
16282;SDS011;8249;48.708;9.030;2022-08-27T10:18:22;30.92;;;27.73;;
16282;SDS011;8249;48.708;9.030;2022-08-27T10:20:59;28.73;;;25.67;;
16282;SDS011;8249;48.708;9.030;2022-08-27T10:23:36;29.08;;;26.13;;
16282;SDS011;8249;48.708;9.030;2022-08-27T10:26:08;22.20;;;20.00;;
16282;SDS011;8249;48.708;9.030;2022-08-27T10:28:47;20.65;;;18.63;;
16282;SDS011;8249;48.708;9.030;2022-08-27T10:31:29;16.88;;;15.27;;
16282;SDS011;8249;48.708;9.030;2022-08-27T10:34:08;16.63;;;15.13;;
16282;SDS011;8249;48.708;9.030;2022-08-27T10:36:45;16.75;;;15.25;;
16282;SDS011;8249;48.708;9.030;2022-08-27T10:39:23;16.77;;;15.18;;
16282;SDS011;8249;48.708;9.030;2022-08-27T10:42:03;16.83;;;15.13;;
16282;SDS011;8249;48.708;9.030;2022-08-27T10:44:45;15.98;;;14.35;;
16282;SDS011;8249;48.708;9.030;2022-08-27T10:47:22;17.20;;;15.60;;
16282;SDS011;8249;48.708;9.030;2022-08-27T10:50:01;16.35;;;14.85;;
16282;SDS011;8249;48.708;9.030;2022-08-27T10:52:33;17.25;;;15.65;;
16282;SDS011;8249;48.708;9.030;2022-08-27T10:55:06;18.13;;;16.42;;
16282;SDS011;8249;48.708;9.030;2022-08-27T11:00:37;16.27;;;14.77;;
16282;SDS011;8249;48.708;9.030;2022-08-27T11:03:09;17.60;;;16.02;;
16282;SDS011;8249;48.708;9.030;2022-08-27T11:05:39;18.88;;;16.15;;
16282;SDS011;8249;48.708;9.030;2022-08-27T11:08:10;18.15;;;16.25;;
16282;SDS011;8249;48.708;9.030;2022-08-27T11:10:46;18.00;;;16.35;;
16282;SDS011;8249;48.708;9.030;2022-08-27T11:13:16;17.92;;;16.20;;
16282;SDS011;8249;48.708;9.030;2022-08-27T11:15:49;18.08;;;16.02;;
16282;SDS011;8249;48.708;9.030;2022-08-27T11:18:22;17.48;;;15.65;;
16282;SDS011;8249;48.708;9.030;2022-08-27T11:20:58;17.42;;;15.63;;
16282;SDS011;8249;48.708;9.030;2022-08-27T11:23:29;18.95;;;15.93;;
16282;SDS011;8249;48.708;9.030;2022-08-27T11:26:03;17.45;;;15.60;;
16282;SDS011;8249;48.708;9.030;2022-08-27T11:28:32;17.38;;;15.68;;
16282;SDS011;8249;48.708;9.030;2022-08-27T11:31:05;19.10;;;16.35;;
16282;SDS011;8249;48.708;9.030;2022-08-27T11:33:39;17.67;;;15.85;;
16282;SDS011;8249;48.708;9.030;2022-08-27T11:36:23;17.73;;;15.90;;
16282;SDS011;8249;48.708;9.030;2022-08-27T11:39:02;18.42;;;16.48;;
16282;SDS011;8249;48.708;9.030;2022-08-27T11:41:41;17.42;;;15.52;;
16282;SDS011;8249;48.708;9.030;2022-08-27T11:44:17;17.73;;;15.38;;
16282;SDS011;8249;48.708;9.030;2022-08-27T11:46:47;17.13;;;15.43;;
16282;SDS011;8249;48.708;9.030;2022-08-27T11:49:23;18.00;;;16.00;;
16282;SDS011;8249;48.708;9.030;2022-08-27T11:52:00;17.70;;;15.57;;
16282;SDS011;8249;48.708;9.030;2022-08-27T11:54:41;19.58;;;16.60;;
16282;SDS011;8249;48.708;9.030;2022-08-27T11:57:15;17.77;;;15.57;;
16282;SDS011;8249;48.708;9.030;2022-08-27T11:59:53;18.13;;;16.33;;
16282;SDS011;8249;48.708;9.030;2022-08-27T12:02:21;18.60;;;15.80;;
16282;SDS011;8249;48.708;9.030;2022-08-27T12:04:51;18.00;;;16.15;;
16282;SDS011;8249;48.708;9.030;2022-08-27T12:07:23;19.27;;;16.77;;
16282;SDS011;8249;48.708;9.030;2022-08-27T12:10:02;18.33;;;16.25;;
16282;SDS011;8249;48.708;9.030;2022-08-27T12:12:47;18.15;;;16.25;;
16282;SDS011;8249;48.708;9.030;2022-08-27T12:15:24;18.48;;;16.45;;
16282;SDS011;8249;48.708;9.030;2022-08-27T12:18:01;19.25;;;16.52;;
16282;SDS011;8249;48.708;9.030;2022-08-27T12:20:37;18.05;;;16.15;;
16282;SDS011;8249;48.708;9.030;2022-08-27T12:23:13;17.10;;;15.40;;
16282;SDS011;8249;48.708;9.030;2022-08-27T12:26:15;16.05;;;14.55;;
16282;SDS011;8249;48.708;9.030;2022-08-27T12:28:54;16.50;;;14.82;;
16282;SDS011;8249;48.708;9.030;2022-08-27T12:31:47;15.40;;;14.00;;
16282;SDS011;8249;48.708;9.030;2022-08-27T12:34:17;15.07;;;13.63;;
16282;SDS011;8249;48.708;9.030;2022-08-27T12:36:46;15.85;;;13.40;;
16282;SDS011;8249;48.708;9.030;2022-08-27T12:39:15;16.15;;;14.63;;
16282;SDS011;8249;48.708;9.030;2022-08-27T12:41:44;16.50;;;14.88;;
16282;SDS011;8249;48.708;9.030;2022-08-27T12:44:21;17.13;;;15.45;;
16282;SDS011;8249;48.708;9.030;2022-08-27T12:46:51;17.10;;;15.55;;
16282;SDS011;8249;48.708;9.030;2022-08-27T12:49:23;16.27;;;14.43;;
16282;SDS011;8249;48.708;9.030;2022-08-27T12:51:53;15.48;;;13.88;;
16282;SDS011;8249;48.708;9.030;2022-08-27T12:54:24;17.58;;;15.57;;
16282;SDS011;8249;48.708;9.030;2022-08-27T12:57:04;17.50;;;15.70;;
16282;SDS011;8249;48.708;9.030;2022-08-27T12:59:45;18.67;;;16.45;;
16282;SDS011;8249;48.708;9.030;2022-08-27T13:02:26;17.17;;;15.50;;
16282;SDS011;8249;48.708;9.030;2022-08-27T13:05:23;18.80;;;16.52;;
16282;SDS011;8249;48.708;9.030;2022-08-27T13:07:51;22.75;;;16.38;;
16282;SDS011;8249;48.708;9.030;2022-08-27T13:10:20;18.90;;;17.05;;
16282;SDS011;8249;48.708;9.030;2022-08-27T13:12:59;20.65;;;16.08;;
16282;SDS011;8249;48.708;9.030;2022-08-27T13:15:30;18.40;;;16.42;;
16282;SDS011;8249;48.708;9.030;2022-08-27T13:17:59;17.70;;;15.98;;
16282;SDS011;8249;48.708;9.030;2022-08-27T13:20:28;22.98;;;17.42;;
16282;SDS011;8249;48.708;9.030;2022-08-27T13:22:56;18.98;;;17.15;;
16282;SDS011;8249;48.708;9.030;2022-08-27T13:25:24;18.42;;;16.73;;
16282;SDS011;8249;48.708;9.030;2022-08-27T13:27:54;20.70;;;17.65;;
16282;SDS011;8249;48.708;9.030;2022-08-27T13:30:27;19.75;;;17.65;;
16282;SDS011;8249;48.708;9.030;2022-08-27T13:32:56;18.63;;;16.85;;
16282;SDS011;8249;48.708;9.030;2022-08-27T13:35:25;19.08;;;17.25;;
16282;SDS011;8249;48.708;9.030;2022-08-27T13:37:52;20.38;;;18.23;;
16282;SDS011;8249;48.708;9.030;2022-08-27T13:40:22;20.27;;;17.52;;
16282;SDS011;8249;48.708;9.030;2022-08-27T13:42:53;20.23;;;18.20;;
16282;SDS011;8249;48.708;9.030;2022-08-27T13:45:21;20.23;;;18.23;;
16282;SDS011;8249;48.708;9.030;2022-08-27T13:47:48;20.55;;;18.38;;
16282;SDS011;8249;48.708;9.030;2022-08-27T13:50:20;19.00;;;17.20;;
16282;SDS011;8249;48.708;9.030;2022-08-27T13:52:49;21.33;;;18.95;;
16282;SDS011;8249;48.708;9.030;2022-08-27T13:55:36;19.05;;;17.30;;
16282;SDS011;8249;48.708;9.030;2022-08-27T13:58:11;20.00;;;18.02;;
16282;SDS011;8249;48.708;9.030;2022-08-27T14:00:39;20.23;;;17.40;;
16282;SDS011;8249;48.708;9.030;2022-08-27T14:03:21;21.10;;;18.40;;
16282;SDS011;8249;48.708;9.030;2022-08-27T14:05:58;19.50;;;17.60;;
16282;SDS011;8249;48.708;9.030;2022-08-27T14:08:26;22.60;;;18.80;;
16282;SDS011;8249;48.708;9.030;2022-08-27T14:10:58;23.67;;;18.27;;
16282;SDS011;8249;48.708;9.030;2022-08-27T14:13:27;19.95;;;17.92;;
16282;SDS011;8249;48.708;9.030;2022-08-27T14:15:56;19.25;;;17.38;;
16282;SDS011;8249;48.708;9.030;2022-08-27T14:18:26;20.92;;;17.95;;
16282;SDS011;8249;48.708;9.030;2022-08-27T14:20:56;22.00;;;18.77;;
16282;SDS011;8249;48.708;9.030;2022-08-27T14:23:25;21.95;;;18.48;;
16282;SDS011;8249;48.708;9.030;2022-08-27T14:25:53;21.83;;;18.90;;
16282;SDS011;8249;48.708;9.030;2022-08-27T14:28:23;19.27;;;17.38;;
16282;SDS011;8249;48.708;9.030;2022-08-27T14:30:50;20.42;;;18.33;;
16282;SDS011;8249;48.708;9.030;2022-08-27T14:33:17;22.73;;;19.80;;
16282;SDS011;8249;48.708;9.030;2022-08-27T14:35:44;22.65;;;19.50;;
16282;SDS011;8249;48.708;9.030;2022-08-27T14:38:14;21.95;;;19.33;;
16282;SDS011;8249;48.708;9.030;2022-08-27T14:40:43;21.92;;;19.40;;
16282;SDS011;8249;48.708;9.030;2022-08-27T14:43:11;22.67;;;20.33;;
16282;SDS011;8249;48.708;9.030;2022-08-27T14:45:39;20.80;;;18.70;;
16282;SDS011;8249;48.708;9.030;2022-08-27T14:48:07;20.77;;;18.75;;
16282;SDS011;8249;48.708;9.030;2022-08-27T14:50:37;21.23;;;19.20;;
16282;SDS011;8249;48.708;9.030;2022-08-27T14:53:04;22.30;;;19.90;;
16282;SDS011;8249;48.708;9.030;2022-08-27T14:55:33;23.92;;;19.10;;